createdAt,value
2018-01-07T00:00:44.376Z,100674.83
2018-01-07T00:01:46.852Z,100678.48
2018-01-07T00:02:49.329Z,100674.85
2018-01-07T00:03:51.808Z,100669.44
2018-01-07T00:04:54.265Z,100674.70
2018-01-07T00:05:56.730Z,100679.34
2018-01-07T00:06:59.208Z,100673.34
2018-01-07T00:08:01.666Z,100675.84
2018-01-07T00:09:04.146Z,100677.87
2018-01-07T00:10:06.639Z,100681.37
2018-01-07T00:11:09.102Z,100678.94
2018-01-07T00:12:11.569Z,100679.44
2018-01-07T00:13:14.022Z,100677.81
2018-01-07T00:14:16.482Z,100680.66
2018-01-07T00:15:18.968Z,100681.53
2018-01-07T00:16:21.425Z,100675.75
2018-01-07T00:17:23.878Z,100680.63
2018-01-07T00:18:26.334Z,100690.19
2018-01-07T00:19:28.790Z,100694.48
2018-01-07T00:20:31.274Z,100693.44
2018-01-07T00:21:33.750Z,100697.49
2018-01-07T00:22:36.208Z,100697.83
2018-01-07T00:23:38.662Z,100693.86
2018-01-07T00:24:41.132Z,100700.66
2018-01-07T00:25:43.608Z,100700.42
2018-01-07T00:26:46.080Z,100701.73
2018-01-07T00:27:48.533Z,100699.14
2018-01-07T00:28:51.008Z,100699.44
2018-01-07T00:29:53.479Z,100710.61
2018-01-07T00:30:55.955Z,100710.95
2018-01-07T00:31:58.418Z,100710.70
2018-01-07T00:33:00.900Z,100717.75
2018-01-07T00:34:03.359Z,100713.38
2018-01-07T00:35:05.822Z,100716.13
2018-01-07T00:36:08.301Z,100720.02
2018-01-07T00:37:10.780Z,100713.88
2018-01-07T00:38:13.294Z,100719.95
2018-01-07T00:39:15.764Z,100714.61
2018-01-07T00:40:18.227Z,100716.72
2018-01-07T00:41:20.705Z,100726.92
2018-01-07T00:42:23.158Z,100718.41
2018-01-07T00:43:25.633Z,100723.52
2018-01-07T00:44:28.104Z,100726.16
2018-01-07T00:45:30.576Z,100721.80
2018-01-07T00:46:33.069Z,100723.34
2018-01-07T00:47:35.523Z,100721.15
2018-01-07T00:48:37.992Z,100722.85
2018-01-07T00:49:40.453Z,100720.09
2018-01-07T00:50:42.928Z,100726.58
2018-01-07T00:51:45.420Z,100730.30
2018-01-07T00:52:47.894Z,100729.33
2018-01-07T00:53:50.373Z,100735.41
2018-01-07T00:54:52.831Z,100730.47
2018-01-07T00:55:55.531Z,100733.79
2018-01-07T00:56:58.020Z,100735.73
2018-01-07T00:58:00.590Z,100729.82
2018-01-07T00:59:03.060Z,100740.02
2018-01-07T01:00:05.533Z,100741.56
2018-01-07T01:01:08.004Z,100741.73
2018-01-07T01:02:11.298Z,100745.61
2018-01-07T01:03:13.784Z,100747.56
2018-01-07T01:04:16.261Z,100749.66
2018-01-07T01:05:18.733Z,100754.60
2018-01-07T01:06:21.204Z,100755.91
2018-01-07T01:07:23.700Z,100759.63
2018-01-07T01:08:26.154Z,100760.76
2018-01-07T01:09:28.610Z,100769.18
2018-01-07T01:10:31.063Z,100766.89
2018-01-07T01:11:33.518Z,100780.48
2018-01-07T01:12:35.979Z,100775.95
2018-01-07T01:13:38.452Z,100781.22
2018-01-07T01:14:40.924Z,100780.41
2018-01-07T01:15:43.382Z,100782.19
2018-01-07T01:16:45.838Z,100780.97
2018-01-07T01:17:48.321Z,100786.08
2018-01-07T01:18:50.793Z,100780.33
2018-01-07T01:19:53.260Z,100785.99
2018-01-07T01:20:55.736Z,100794.81
2018-01-07T01:21:58.198Z,100796.77
2018-01-07T01:23:00.654Z,100793.77
2018-01-07T01:24:03.134Z,100798.05
2018-01-07T01:25:05.606Z,100794.73
2018-01-07T01:26:08.080Z,100803.97
2018-01-07T01:27:10.556Z,100802.34
2018-01-07T01:28:13.014Z,100804.70
2018-01-07T01:29:15.470Z,100815.05
2018-01-07T01:30:17.927Z,100808.34
2018-01-07T01:31:20.400Z,100807.53
2018-01-07T01:32:22.857Z,100817.32
2018-01-07T01:33:25.340Z,100813.11
2018-01-07T01:34:27.797Z,100816.83
2018-01-07T01:35:30.273Z,100811.05
2018-01-07T01:36:32.734Z,100820.45
2018-01-07T01:37:35.195Z,100819.23
2018-01-07T01:38:37.649Z,100820.36
2018-01-07T01:39:40.107Z,100822.30
2018-01-07T01:40:42.580Z,100828.78
2018-01-07T01:41:45.040Z,100835.82
2018-01-07T01:42:47.497Z,100831.86
2018-01-07T01:43:49.968Z,100839.30
2018-01-07T01:44:52.422Z,100839.55
2018-01-07T01:45:54.878Z,100841.73
2018-01-07T01:46:57.339Z,100835.82
2018-01-07T01:47:59.794Z,100837.44
2018-01-07T01:49:14.043Z,100832.91
2018-01-07T01:50:16.499Z,100843.92
2018-01-07T01:51:19.013Z,100842.95
2018-01-07T01:52:21.470Z,100840.77
2018-01-07T01:53:23.934Z,100847.64
2018-01-07T01:54:26.410Z,100838.57
2018-01-07T01:55:28.887Z,100844.08
2018-01-07T01:56:31.356Z,100846.98
2018-01-07T01:57:33.828Z,100847.55
2018-01-07T01:58:36.286Z,100849.74
2018-01-07T01:59:38.771Z,100847.16
2018-01-07T02:00:41.245Z,100851.84
2018-01-07T02:01:43.723Z,100852.81
2018-01-07T02:02:46.188Z,100858.89
2018-01-07T02:03:48.648Z,100863.58
2018-01-07T02:04:51.102Z,100859.20
2018-01-07T02:05:53.580Z,100858.80
2018-01-07T02:06:56.050Z,100856.45
2018-01-07T02:07:58.520Z,100861.15
2018-01-07T02:09:01.001Z,100862.28
2018-01-07T02:10:03.461Z,100862.84
2018-01-07T02:11:05.936Z,100865.19
2018-01-07T02:12:08.394Z,100869.08
2018-01-07T02:13:10.847Z,100870.61
2018-01-07T02:14:13.331Z,100867.61
2018-01-07T02:15:15.804Z,100868.15
2018-01-07T02:16:18.258Z,100874.94
2018-01-07T02:17:20.719Z,100877.70
2018-01-07T02:18:23.174Z,100871.54
2018-01-07T02:19:25.650Z,100870.97
2018-01-07T02:20:28.105Z,100860.37
2018-01-07T02:21:30.562Z,100866.28
2018-01-07T02:22:33.018Z,100869.19
2018-01-07T02:23:35.488Z,100870.57
2018-01-07T02:24:37.965Z,100867.00
2018-01-07T02:25:40.435Z,100874.29
2018-01-07T02:26:42.890Z,100871.70
2018-01-07T02:27:45.346Z,100879.23
2018-01-07T02:28:47.805Z,100877.85
2018-01-07T02:29:50.290Z,100888.45
2018-01-07T02:30:52.752Z,100889.42
2018-01-07T02:31:55.220Z,100887.23
2018-01-07T02:32:57.678Z,100890.15
2018-01-07T02:34:00.163Z,100892.25
2018-01-07T02:35:02.656Z,100897.75
2018-01-07T02:36:05.138Z,100897.75
2018-01-07T02:37:07.608Z,100897.75
2018-01-07T02:38:10.081Z,100898.81
2018-01-07T02:39:12.569Z,100905.28
2018-01-07T02:40:15.061Z,100910.22
2018-01-07T02:41:17.526Z,100908.53
2018-01-07T02:42:19.991Z,100908.13
2018-01-07T02:43:22.459Z,100909.34
2018-01-07T02:44:24.983Z,100911.69
2018-01-07T02:45:27.479Z,100907.55
2018-01-07T02:46:29.934Z,100915.81
2018-01-07T02:47:32.412Z,100910.47
2018-01-07T02:48:34.891Z,100910.63
2018-01-07T02:49:37.367Z,100911.19
2018-01-07T02:50:39.854Z,100918.07
2018-01-07T02:51:42.310Z,100908.03
2018-01-07T02:52:44.766Z,100920.01
2018-01-07T02:53:47.230Z,100919.61
2018-01-07T02:54:49.709Z,100920.58
2018-01-07T02:55:52.197Z,100921.70
2018-01-07T02:56:54.654Z,100922.11
2018-01-07T02:57:57.130Z,100922.67
2018-01-07T02:58:59.583Z,100924.77
2018-01-07T03:00:02.085Z,100923.56
2018-01-07T03:01:04.588Z,100929.47
2018-01-07T03:02:07.081Z,100925.50
2018-01-07T03:03:09.550Z,100927.84
2018-01-07T03:04:12.030Z,100932.51
2018-01-07T03:05:14.508Z,100935.98
2018-01-07T03:06:17.012Z,100929.66
2018-01-07T03:07:19.476Z,100929.42
2018-01-07T03:08:21.965Z,100931.61
2018-01-07T03:09:24.429Z,100931.77
2018-01-07T03:10:26.890Z,100934.52
2018-01-07T03:11:29.374Z,100938.64
2018-01-07T03:12:31.834Z,100933.86
2018-01-07T03:13:34.311Z,100936.21
2018-01-07T03:14:36.776Z,100936.34
2018-01-07T03:15:39.380Z,100940.87
2018-01-07T03:16:41.860Z,100942.81
2018-01-07T03:17:44.318Z,100945.31
2018-01-07T03:18:46.792Z,100934.88
2018-01-07T03:19:49.254Z,100946.69
2018-01-07T03:20:51.718Z,100941.75
2018-01-07T03:21:54.191Z,100947.01
2018-01-07T03:22:56.670Z,100948.78
2018-01-07T03:23:59.136Z,100952.91
2018-01-07T03:25:01.589Z,100960.20
2018-01-07T03:26:04.074Z,100954.29
2018-01-07T03:27:06.544Z,100959.38
2018-01-07T03:28:09.012Z,100958.58
2018-01-07T03:29:11.473Z,100958.17
2018-01-07T03:30:13.927Z,100956.95
2018-01-07T03:31:16.410Z,100959.05
2018-01-07T03:32:18.884Z,100959.20
2018-01-07T03:33:21.363Z,100955.40
2018-01-07T03:34:23.818Z,100957.91
2018-01-07T03:35:26.274Z,100950.21
2018-01-07T03:36:28.749Z,100953.94
2018-01-07T03:38:33.113Z,100944.63
2018-01-07T03:39:35.584Z,100955.13
2018-01-07T03:40:38.077Z,100948.66
2018-01-07T03:41:40.576Z,100956.09
2018-01-07T03:42:43.044Z,100955.85
2018-01-07T03:43:45.502Z,100957.76
2018-01-07T03:44:47.972Z,100953.64
2018-01-07T03:45:50.444Z,100957.76
2018-01-07T03:46:52.916Z,100954.77
2018-01-07T03:47:55.373Z,100951.20
2018-01-07T03:48:57.825Z,100962.77
2018-01-07T03:50:00.283Z,100958.80
2018-01-07T03:51:02.842Z,100956.61
2018-01-07T03:52:05.318Z,100961.30
2018-01-07T03:53:07.796Z,100961.45
2018-01-07T03:54:10.254Z,100965.74
2018-01-07T03:55:12.719Z,100961.62
2018-01-07T03:56:15.184Z,100963.55
2018-01-07T03:57:17.642Z,100971.40
2018-01-07T03:58:20.126Z,100966.05
2018-01-07T03:59:22.596Z,100968.00
2018-01-07T04:00:25.064Z,100963.47
2018-01-07T04:01:27.526Z,100970.34
2018-01-07T04:02:29.982Z,100971.06
2018-01-07T04:03:33.316Z,100972.84
2018-01-07T04:04:35.796Z,100971.06
2018-01-07T04:05:38.254Z,100974.38
2018-01-07T04:06:40.769Z,100970.41
2018-01-07T04:07:43.310Z,100975.91
2018-01-07T04:08:45.784Z,100971.94
2018-01-07T04:09:48.256Z,100970.56
2018-01-07T04:10:50.718Z,100983.50
2018-01-07T04:11:53.196Z,100986.81
2018-01-07T04:12:55.663Z,100987.78
2018-01-07T04:13:58.176Z,100986.97
2018-01-07T04:15:00.634Z,100982.59
2018-01-07T04:16:03.128Z,100985.48
2018-01-07T04:17:05.606Z,100981.91
2018-01-07T04:18:08.104Z,100984.01
2018-01-07T04:19:10.584Z,100982.23
2018-01-07T04:20:13.050Z,100982.55
2018-01-07T04:21:15.533Z,100985.45
2018-01-07T04:22:17.990Z,100979.30
2018-01-07T04:23:20.465Z,100983.17
2018-01-07T04:24:22.939Z,100983.89
2018-01-07T04:25:25.394Z,100981.95
2018-01-07T04:26:27.944Z,100977.73
2018-01-07T04:27:30.412Z,100980.23
2018-01-07T04:28:32.886Z,100983.55
2018-01-07T04:29:35.338Z,100981.92
2018-01-07T04:30:37.816Z,100982.73
2018-01-07T04:31:40.274Z,100990.17
2018-01-07T04:32:42.740Z,100993.08
2018-01-07T04:33:45.258Z,100987.73
2018-01-07T04:34:47.720Z,100992.02
2018-01-07T04:35:50.196Z,100994.92
2018-01-07T04:36:52.661Z,100994.48
2018-01-07T04:37:55.133Z,100988.98
2018-01-07T04:38:57.610Z,100990.12
2018-01-07T04:40:00.085Z,100989.46
2018-01-07T04:41:02.593Z,100989.05
2018-01-07T04:42:05.050Z,100995.52
2018-01-07T04:43:07.528Z,100991.30
2018-01-07T04:44:10.010Z,100997.77
2018-01-07T04:45:12.461Z,100993.80
2018-01-07T04:46:14.938Z,100986.68
2018-01-07T04:47:17.418Z,100997.27
2018-01-07T04:48:19.892Z,100987.74
2018-01-07T04:49:22.366Z,100992.90
2018-01-07T04:50:24.831Z,100992.24
2018-01-07T04:51:27.285Z,100997.90
2018-01-07T04:52:29.825Z,101014.14
2018-01-07T04:53:32.283Z,101005.08
2018-01-07T04:54:34.790Z,101010.58
2018-01-07T04:55:37.260Z,101009.77
2018-01-07T04:56:39.780Z,101006.77
2018-01-07T04:57:42.244Z,100998.27
2018-01-07T04:58:44.736Z,101004.86
2018-01-07T04:59:47.378Z,101006.39
2018-01-07T05:00:49.843Z,101015.20
2018-01-07T05:01:52.320Z,101008.89
2018-01-07T05:02:54.851Z,101011.23
2018-01-07T05:03:57.316Z,101012.77
2018-01-07T05:04:59.792Z,101011.55
2018-01-07T05:06:02.326Z,101016.63
2018-01-07T05:07:04.782Z,101015.41
2018-01-07T05:08:07.246Z,101014.04
2018-01-07T05:09:09.702Z,101015.73
2018-01-07T05:10:12.260Z,101013.54
2018-01-07T05:11:14.715Z,101020.97
2018-01-07T05:12:17.180Z,101013.29
2018-01-07T05:13:19.657Z,101017.56
2018-01-07T05:14:22.133Z,101026.78
2018-01-07T05:15:24.612Z,101028.72
2018-01-07T05:16:27.089Z,101035.74
2018-01-07T05:17:29.546Z,101027.25
2018-01-07T05:18:32.007Z,101029.19
2018-01-07T05:19:34.488Z,101035.64
2018-01-07T05:20:36.952Z,101040.33
2018-01-07T05:21:39.411Z,101034.98
2018-01-07T05:22:41.884Z,101029.64
2018-01-07T05:23:44.345Z,101031.42
2018-01-07T05:24:46.801Z,101040.64
2018-01-07T05:25:49.266Z,101035.42
2018-01-07T05:26:51.727Z,101044.07
2018-01-07T05:27:54.196Z,101046.00
2018-01-07T05:28:56.677Z,101057.00
2018-01-07T05:29:59.152Z,101056.75
2018-01-07T05:31:01.611Z,101043.57
2018-01-07T05:32:04.084Z,101046.87
2018-01-07T05:33:06.538Z,101054.72
2018-01-07T05:34:09.001Z,101066.67
2018-01-07T05:35:11.472Z,101060.77
2018-01-07T05:36:13.940Z,101058.99
2018-01-07T05:37:16.401Z,101066.98
2018-01-07T05:38:18.880Z,101068.77
2018-01-07T05:39:21.360Z,101056.55
2018-01-07T05:40:23.813Z,101060.27
2018-01-07T05:41:26.284Z,101075.38
2018-01-07T05:42:28.748Z,101066.17
2018-01-07T05:44:32.966Z,101074.97
2018-01-07T05:45:35.436Z,101071.26
2018-01-07T05:46:37.894Z,101077.31
2018-01-07T05:47:40.366Z,101079.66
2018-01-07T05:48:42.840Z,101073.20
2018-01-07T05:49:45.312Z,101079.81
2018-01-07T05:50:47.784Z,101092.98
2018-01-07T05:51:50.242Z,101080.38
2018-01-07T05:52:52.701Z,101086.83
2018-01-07T05:53:55.430Z,101087.80
2018-01-07T05:54:57.889Z,101095.23
2018-01-07T05:56:00.356Z,101089.73
2018-01-07T05:57:02.837Z,101092.08
2018-01-07T05:58:05.668Z,101088.52
2018-01-07T05:59:08.144Z,101089.08
2018-01-07T06:00:10.632Z,101096.50
2018-01-07T06:01:13.120Z,101095.13
2018-01-07T06:02:15.592Z,101098.97
2018-01-07T06:03:18.046Z,101093.47
2018-01-07T06:04:20.501Z,101105.84
2018-01-07T06:05:22.976Z,101105.02
2018-01-07T06:06:25.453Z,101102.84
2018-01-07T06:07:27.924Z,101113.02
2018-01-07T06:08:30.401Z,101108.89
2018-01-07T06:09:32.860Z,101107.92
2018-01-07T06:10:35.335Z,101102.58
2018-01-07T06:11:37.812Z,101104.11
2018-01-07T06:12:40.268Z,101116.47
2018-01-07T06:13:42.740Z,101121.41
2018-01-07T06:14:45.198Z,101107.83
2018-01-07T06:15:47.686Z,101110.13
2018-01-07T06:16:50.162Z,101107.83
2018-01-07T06:17:52.652Z,101107.39
2018-01-07T06:18:55.393Z,101122.80
2018-01-07T06:19:57.850Z,101131.05
2018-01-07T06:21:00.306Z,101129.27
2018-01-07T06:22:02.783Z,101133.13
2018-01-07T06:23:05.248Z,101129.57
2018-01-07T06:24:07.708Z,101126.57
2018-01-07T06:25:10.180Z,101132.06
2018-01-07T06:26:12.636Z,101144.58
2018-01-07T06:27:15.106Z,101144.17
2018-01-07T06:28:17.675Z,101140.92
2018-01-07T06:29:20.130Z,101148.34
2018-01-07T06:30:22.612Z,101155.77
2018-01-07T06:31:25.071Z,101143.00
2018-01-07T06:32:27.528Z,101138.63
2018-01-07T06:33:30.053Z,101143.31
2018-01-07T06:34:32.509Z,101152.92
2018-01-07T06:35:34.987Z,101148.55
2018-01-07T06:36:37.461Z,101142.66
2018-01-07T06:37:39.918Z,101145.14
2018-01-07T06:38:42.397Z,101143.92
2018-01-07T06:39:44.854Z,101150.53
2018-01-07T06:40:47.328Z,101147.23
2018-01-07T06:41:49.786Z,101152.47
2018-01-07T06:42:52.261Z,101150.66
2018-01-07T06:43:54.732Z,101154.25
2018-01-07T06:44:57.204Z,101154.37
2018-01-07T06:45:59.670Z,101157.12
2018-01-07T06:47:02.136Z,101160.17
2018-01-07T06:48:04.680Z,101157.17
2018-01-07T06:49:07.156Z,101166.48
2018-01-07T06:50:09.622Z,101171.72
2018-01-07T06:51:12.086Z,101178.69
2018-01-07T06:52:14.570Z,101188.58
2018-01-07T06:53:17.026Z,101180.59
2018-01-07T06:54:19.502Z,101187.31
2018-01-07T06:55:21.974Z,101188.69
2018-01-07T06:56:24.440Z,101186.75
2018-01-07T06:57:26.920Z,101185.94
2018-01-07T06:58:29.382Z,101190.47
2018-01-07T06:59:31.864Z,101192.40
2018-01-07T07:00:34.329Z,101191.02
2018-01-07T07:01:36.802Z,101194.33
2018-01-07T07:02:39.277Z,101193.11
2018-01-07T07:03:41.733Z,101204.09
2018-01-07T07:04:44.216Z,101204.66
2018-01-07T07:05:46.689Z,101213.98
2018-01-07T07:06:49.164Z,101212.61
2018-01-07T07:07:51.618Z,101215.91
2018-01-07T07:08:54.095Z,101218.00
2018-01-07T07:09:56.564Z,101218.97
2018-01-07T07:10:59.041Z,101211.69
2018-01-07T07:12:01.513Z,101218.16
2018-01-07T07:13:03.973Z,101226.13
2018-01-07T07:14:06.462Z,101226.70
2018-01-07T07:15:08.954Z,101232.19
2018-01-07T07:16:11.433Z,101234.67
2018-01-07T07:17:13.904Z,101234.67
2018-01-07T07:18:16.378Z,101234.98
2018-01-07T07:19:18.857Z,101237.72
2018-01-07T07:20:21.328Z,101240.63
2018-01-07T07:21:23.785Z,101235.28
2018-01-07T07:22:26.242Z,101232.53
2018-01-07T07:23:28.708Z,101233.91
2018-01-07T07:24:31.206Z,101247.23
2018-01-07T07:25:33.680Z,101247.23
2018-01-07T07:26:36.172Z,101251.35
2018-01-07T07:27:38.626Z,101255.06
2018-01-07T07:28:41.096Z,101255.47
2018-01-07T07:29:43.584Z,101260.97
2018-01-07T07:30:46.062Z,101267.02
2018-01-07T07:31:48.521Z,101267.42
2018-01-07T07:32:50.989Z,101269.91
2018-01-07T07:33:53.450Z,101271.28
2018-01-07T07:34:55.942Z,101274.03
2018-01-07T07:35:58.424Z,101276.78
2018-01-07T07:37:00.891Z,101276.78
2018-01-07T07:38:03.367Z,101278.56
2018-01-07T07:39:05.829Z,101272.25
2018-01-07T07:40:08.324Z,101281.45
2018-01-07T07:41:10.797Z,101285.98
2018-01-07T07:42:13.271Z,101281.05
2018-01-07T07:43:15.746Z,101282.02
2018-01-07T07:44:18.218Z,101287.50
2018-01-07T07:45:20.693Z,101286.69
2018-01-07T07:46:23.160Z,101288.63
2018-01-07T07:47:25.614Z,101295.48
2018-01-07T07:48:28.074Z,101289.59
2018-01-07T07:49:30.531Z,101292.08
2018-01-07T07:50:33.034Z,101288.36
2018-01-07T07:51:35.502Z,101295.23
2018-01-07T07:52:38.005Z,101289.33
2018-01-07T07:53:40.467Z,101302.25
2018-01-07T07:54:42.935Z,101294.13
2018-01-07T07:55:45.410Z,101295.65
2018-01-07T07:56:47.896Z,101297.43
2018-01-07T07:57:50.370Z,101299.21
2018-01-07T07:58:52.830Z,101294.28
2018-01-07T07:59:55.288Z,101290.87
2018-01-07T08:00:57.766Z,101291.27
2018-01-07T08:02:00.223Z,101290.87
2018-01-07T08:03:02.678Z,101291.42
2018-01-07T08:04:05.134Z,101291.98
2018-01-07T08:05:07.729Z,101291.98
2018-01-07T08:06:10.212Z,101293.91
2018-01-07T08:07:12.689Z,101300.38
2018-01-07T08:08:15.164Z,101305.30
2018-01-07T08:09:17.641Z,101313.54
2018-01-07T08:10:20.110Z,101313.28
2018-01-07T08:11:22.596Z,101317.55
2018-01-07T08:12:25.068Z,101322.08
2018-01-07T08:13:27.644Z,101319.89
2018-01-07T08:14:30.121Z,101324.56
2018-01-07T08:15:32.582Z,101325.94
2018-01-07T08:16:35.076Z,101322.64
2018-01-07T08:17:37.534Z,101320.45
2018-01-07T08:18:40.008Z,101323.34
2018-01-07T08:19:42.478Z,101315.26
2018-01-07T08:20:44.949Z,101326.65
2018-01-07T08:21:47.452Z,101325.83
2018-01-07T08:22:49.924Z,101330.92
2018-01-07T08:23:52.381Z,101328.73
2018-01-07T08:24:54.842Z,101334.37
2018-01-07T08:25:57.312Z,101336.30
2018-01-07T08:26:59.801Z,101339.05
2018-01-07T08:28:02.262Z,101333.70
2018-01-07T08:29:04.726Z,101332.73
2018-01-07T08:30:07.192Z,101337.83
2018-01-07T08:31:09.664Z,101339.19
2018-01-07T08:32:12.156Z,101341.53
2018-01-07T08:33:14.643Z,101337.56
2018-01-07T08:34:17.127Z,101340.46
2018-01-07T08:35:19.590Z,101343.61
2018-01-07T08:36:22.046Z,101352.41
2018-01-07T08:37:24.536Z,101351.84
2018-01-07T08:38:27.009Z,101355.15
2018-01-07T08:39:29.477Z,101354.48
2018-01-07T08:40:31.930Z,101357.23
2018-01-07T08:41:34.404Z,101359.98
2018-01-07T08:42:36.900Z,101358.60
2018-01-07T08:43:39.362Z,101365.62
2018-01-07T08:44:41.818Z,101366.55
2018-01-07T08:45:44.294Z,101366.29
2018-01-07T08:46:46.776Z,101370.97
2018-01-07T08:47:49.259Z,101373.30
2018-01-07T08:48:51.732Z,101369.33
2018-01-07T08:49:54.203Z,101367.41
2018-01-07T08:50:56.691Z,101370.15
2018-01-07T08:51:59.166Z,101375.90
2018-01-07T08:53:01.660Z,101374.38
2018-01-07T08:54:04.118Z,101377.00
2018-01-07T08:55:06.574Z,101370.41
2018-01-07T08:56:09.038Z,101374.48
2018-01-07T08:57:11.494Z,101380.04
2018-01-07T08:58:14.000Z,101376.89
2018-01-07T08:59:16.485Z,101381.41
2018-01-07T09:00:18.975Z,101377.85
2018-01-07T09:01:21.464Z,101384.46
2018-01-07T09:02:23.918Z,101380.48
2018-01-07T09:03:26.404Z,101385.16
2018-01-07T09:04:28.886Z,101388.88
2018-01-07T09:05:31.357Z,101396.30
2018-01-07T09:06:33.818Z,101391.77
2018-01-07T09:07:36.288Z,101398.94
2018-01-07T09:08:38.766Z,101400.30
2018-01-07T09:09:41.252Z,101406.91
2018-01-07T09:10:43.706Z,101404.31
2018-01-07T09:11:46.171Z,101404.05
2018-01-07T09:12:48.642Z,101407.47
2018-01-07T09:13:51.119Z,101409.55
2018-01-07T09:14:53.607Z,101407.51
2018-01-07T09:15:56.084Z,101409.44
2018-01-07T09:16:58.557Z,101414.52
2018-01-07T09:18:01.029Z,101414.52
2018-01-07T09:19:03.533Z,101417.00
2018-01-07T09:20:06.004Z,101418.79
2018-01-07T09:21:08.462Z,101419.48
2018-01-07T09:22:10.936Z,101420.45
2018-01-07T09:23:13.399Z,101413.73
2018-01-07T09:24:15.900Z,101419.38
2018-01-07T09:25:18.367Z,101420.34
2018-01-07T09:26:20.823Z,101410.06
2018-01-07T09:27:23.293Z,101413.22
2018-01-07T09:28:25.769Z,101407.06
2018-01-07T09:29:28.251Z,101412.96
2018-01-07T09:30:30.718Z,101410.88
2018-01-07T09:31:33.189Z,101419.53
2018-01-07T09:32:35.650Z,101425.39
2018-01-07T09:33:38.111Z,101423.87
2018-01-07T09:34:40.592Z,101428.66
2018-01-07T09:35:43.054Z,101435.11
2018-01-07T09:36:45.526Z,101436.11
2018-01-07T09:37:48.012Z,101430.95
2018-01-07T09:38:50.492Z,101428.51
2018-01-07T09:39:53.001Z,101428.88
2018-01-07T09:40:55.458Z,101428.05
2018-01-07T09:41:57.928Z,101422.56
2018-01-07T09:43:00.387Z,101429.13
2018-01-07T09:44:02.856Z,101427.88
2018-01-07T09:45:05.348Z,101428.69
2018-01-07T09:46:07.811Z,101430.44
2018-01-07T09:47:10.271Z,101429.77
2018-01-07T09:48:12.744Z,101431.14
2018-01-07T09:49:15.229Z,101430.44
2018-01-07T09:50:17.710Z,101428.54
2018-01-07T09:51:20.166Z,101439.44
2018-01-07T09:52:22.644Z,101441.14
2018-01-07T09:53:25.132Z,101435.95
2018-01-07T09:54:27.586Z,101440.66
2018-01-07T09:55:30.065Z,101452.36
2018-01-07T09:56:32.709Z,101450.91
2018-01-07T09:57:35.179Z,101450.80
2018-01-07T09:58:37.636Z,101448.23
2018-01-07T09:59:40.860Z,101448.28
2018-01-07T10:00:43.356Z,101446.24
2018-01-07T10:01:45.840Z,101444.49
2018-01-07T10:02:48.303Z,101446.71
2018-01-07T10:03:50.784Z,101441.81
2018-01-07T10:04:53.254Z,101445.66
2018-01-07T10:05:55.758Z,101447.73
2018-01-07T10:06:58.240Z,101448.14
2018-01-07T10:08:00.712Z,101447.73
2018-01-07T10:09:03.213Z,101446.39
2018-01-07T10:10:05.673Z,101446.23
2018-01-07T10:11:08.165Z,101445.30
2018-01-07T10:12:10.626Z,101448.48
2018-01-07T10:13:13.113Z,101451.99
2018-01-07T10:14:15.588Z,101453.45
2018-01-07T10:15:18.060Z,101449.22
2018-01-07T10:16:20.569Z,101452.91
2018-01-07T10:17:23.068Z,101451.39
2018-01-07T10:18:25.576Z,101448.33
2018-01-07T10:19:28.044Z,101451.98
2018-01-07T10:20:30.498Z,101448.67
2018-01-07T10:21:32.972Z,101457.44
2018-01-07T10:22:35.444Z,101458.09
2018-01-07T10:23:37.912Z,101456.11
2018-01-07T10:24:40.370Z,101456.21
2018-01-07T10:25:42.839Z,101463.69
2018-01-07T10:26:45.297Z,101464.53
2018-01-07T10:27:47.758Z,101458.98
2018-01-07T10:28:50.214Z,101462.83
2018-01-07T10:29:52.688Z,101475.47
2018-01-07T10:30:55.183Z,101474.13
2018-01-07T10:31:57.661Z,101472.23
2018-01-07T10:33:00.114Z,101477.17
2018-01-07T10:34:02.591Z,101475.71
2018-01-07T10:35:05.069Z,101478.43
2018-01-07T10:36:07.574Z,101476.06
2018-01-07T10:37:10.060Z,101476.90
2018-01-07T10:38:12.518Z,101475.50
2018-01-07T10:39:15.107Z,101480.14
2018-01-07T10:40:17.566Z,101479.70
2018-01-07T10:41:20.042Z,101476.64
2018-01-07T10:42:22.516Z,101474.67
2018-01-07T10:43:24.984Z,101474.17
2018-01-07T10:44:27.451Z,101478.30
2018-01-07T10:45:29.920Z,101479.23
2018-01-07T10:46:32.396Z,101475.55
2018-01-07T10:47:34.881Z,101475.42
2018-01-07T10:48:37.338Z,101476.45
2018-01-07T10:49:39.811Z,101471.77
2018-01-07T10:50:42.283Z,101472.11
2018-01-07T10:51:44.806Z,101466.38
2018-01-07T10:52:47.283Z,101466.73
2018-01-07T10:53:49.760Z,101464.69
2018-01-07T10:54:52.232Z,101471.73
2018-01-07T10:55:54.710Z,101465.56
2018-01-07T10:56:57.204Z,101475.62
2018-01-07T10:57:59.683Z,101471.95
2018-01-07T10:59:02.152Z,101474.36
2018-01-07T11:00:04.632Z,101484.72
2018-01-07T11:01:12.666Z,101464.80
2018-01-07T11:02:20.803Z,101470.50
2018-01-07T11:03:23.269Z,101474.59
2018-01-07T11:04:25.729Z,101477.41
2018-01-07T11:05:28.205Z,101470.58
2018-01-07T11:06:30.662Z,101471.19
2018-01-07T11:07:33.160Z,101473.16
2018-01-07T11:08:35.633Z,101474.75
2018-01-07T11:09:38.094Z,101486.95
2018-01-07T11:10:40.569Z,101482.05
2018-01-07T11:11:43.023Z,101481.83
2018-01-07T11:12:45.554Z,101485.80
2018-01-07T11:13:48.020Z,101488.36
2018-01-07T11:14:50.482Z,101484.84
2018-01-07T11:15:52.943Z,101484.48
2018-01-07T11:16:55.402Z,101488.67
2018-01-07T11:17:57.878Z,101485.53
2018-01-07T11:19:00.353Z,101489.82
2018-01-07T11:20:02.837Z,101483.80
2018-01-07T11:21:05.319Z,101484.16
2018-01-07T11:22:07.797Z,101484.06
2018-01-07T11:23:10.288Z,101489.22
2018-01-07T11:24:12.746Z,101488.30
2018-01-07T11:25:15.252Z,101481.00
2018-01-07T11:26:17.815Z,101479.50
2018-01-07T11:27:20.275Z,101485.05
2018-01-07T11:28:22.755Z,101483.32
2018-01-07T11:29:26.484Z,101488.16
2018-01-07T11:30:28.995Z,101477.41
2018-01-07T11:31:31.562Z,101480.36
2018-01-07T11:32:34.024Z,101479.89
2018-01-07T11:33:36.524Z,101479.12
2018-01-07T11:34:38.990Z,101472.20
2018-01-07T11:35:41.502Z,101471.38
2018-01-07T11:36:43.986Z,101472.39
2018-01-07T11:37:46.485Z,101462.80
2018-01-07T11:38:48.985Z,101466.25
2018-01-07T11:39:51.468Z,101465.62
2018-01-07T11:40:53.931Z,101468.73
2018-01-07T11:41:56.395Z,101469.23
2018-01-07T11:42:58.898Z,101471.53
2018-01-07T11:44:01.425Z,101471.78
2018-01-07T11:45:03.908Z,101475.91
2018-01-07T11:46:07.102Z,101474.91
2018-01-07T11:47:09.568Z,101467.52
2018-01-07T11:48:12.027Z,101475.37
2018-01-07T11:49:14.536Z,101468.23
2018-01-07T11:50:17.000Z,101468.53
2018-01-07T11:51:19.509Z,101471.63
2018-01-07T11:52:21.988Z,101462.45
2018-01-07T11:53:24.450Z,101457.41
2018-01-07T11:54:26.943Z,101466.12
2018-01-07T11:55:29.461Z,101468.94